sensor_id;sensor_type;location;lat;lon;timestamp;temperature;humidity
17423;DHT22;8829;47.932;7.810;2023-04-25T00:01:58;9.70;99.90
17423;DHT22;8829;47.932;7.810;2023-04-25T00:04:25;9.60;99.90
17423;DHT22;8829;47.932;7.810;2023-04-25T00:06:53;9.60;99.90
17423;DHT22;8829;47.932;7.810;2023-04-25T00:09:19;9.60;99.90
17423;DHT22;8829;47.932;7.810;2023-04-25T00:11:46;9.50;99.90
17423;DHT22;8829;47.932;7.810;2023-04-25T00:14:13;9.60;99.90
17423;DHT22;8829;47.932;7.810;2023-04-25T00:16:40;9.50;99.90
17423;DHT22;8829;47.932;7.810;2023-04-25T00:19:10;9.50;99.90
17423;DHT22;8829;47.932;7.810;2023-04-25T00:21:38;9.40;99.90
17423;DHT22;8829;47.932;7.810;2023-04-25T00:24:06;9.40;99.90
17423;DHT22;8829;47.932;7.810;2023-04-25T00:26:33;9.50;99.90
17423;DHT22;8829;47.932;7.810;2023-04-25T00:29:00;9.50;99.90
17423;DHT22;8829;47.932;7.810;2023-04-25T00:31:27;9.50;99.90
17423;DHT22;8829;47.932;7.810;2023-04-25T00:33:54;9.50;99.90
17423;DHT22;8829;47.932;7.810;2023-04-25T00:36:23;9.60;99.90
17423;DHT22;8829;47.932;7.810;2023-04-25T00:38:49;9.60;99.90
17423;DHT22;8829;47.932;7.810;2023-04-25T00:41:16;9.60;99.90
17423;DHT22;8829;47.932;7.810;2023-04-25T00:43:44;9.60;99.90
17423;DHT22;8829;47.932;7.810;2023-04-25T00:46:12;9.50;99.90
17423;DHT22;8829;47.932;7.810;2023-04-25T00:48:38;9.50;99.90
17423;DHT22;8829;47.932;7.810;2023-04-25T00:51:05;9.60;99.90
17423;DHT22;8829;47.932;7.810;2023-04-25T00:53:34;9.50;99.90
17423;DHT22;8829;47.932;7.810;2023-04-25T00:56:00;9.30;99.90
17423;DHT22;8829;47.932;7.810;2023-04-25T00:58:27;9.30;99.90
17423;DHT22;8829;47.932;7.810;2023-04-25T01:00:54;9.20;99.90
17423;DHT22;8829;47.932;7.810;2023-04-25T01:03:22;9.20;99.90
17423;DHT22;8829;47.932;7.810;2023-04-25T01:05:51;9.20;99.90
17423;DHT22;8829;47.932;7.810;2023-04-25T01:08:18;9.10;99.90
17423;DHT22;8829;47.932;7.810;2023-04-25T01:10:46;9.00;99.90
17423;DHT22;8829;47.932;7.810;2023-04-25T01:13:13;9.00;99.90
17423;DHT22;8829;47.932;7.810;2023-04-25T01:15:40;9.10;99.90
17423;DHT22;8829;47.932;7.810;2023-04-25T01:18:06;9.00;99.90
17423;DHT22;8829;47.932;7.810;2023-04-25T01:20:34;8.90;99.90
17423;DHT22;8829;47.932;7.810;2023-04-25T01:23:02;8.90;99.90
17423;DHT22;8829;47.932;7.810;2023-04-25T01:25:30;8.80;99.90
17423;DHT22;8829;47.932;7.810;2023-04-25T01:27:57;8.90;99.90
17423;DHT22;8829;47.932;7.810;2023-04-25T01:30:25;8.90;99.90
17423;DHT22;8829;47.932;7.810;2023-04-25T01:32:54;8.90;99.90
17423;DHT22;8829;47.932;7.810;2023-04-25T01:35:21;9.10;99.90
17423;DHT22;8829;47.932;7.810;2023-04-25T01:37:49;9.10;99.90
17423;DHT22;8829;47.932;7.810;2023-04-25T01:40:19;9.00;99.90
17423;DHT22;8829;47.932;7.810;2023-04-25T01:42:47;9.00;99.90
17423;DHT22;8829;47.932;7.810;2023-04-25T01:45:13;9.00;99.90
17423;DHT22;8829;47.932;7.810;2023-04-25T01:47:40;9.10;99.90
17423;DHT22;8829;47.932;7.810;2023-04-25T01:50:10;9.10;99.90
17423;DHT22;8829;47.932;7.810;2023-04-25T01:52:37;9.20;99.90
17423;DHT22;8829;47.932;7.810;2023-04-25T01:55:05;9.20;99.90
17423;DHT22;8829;47.932;7.810;2023-04-25T01:57:33;9.30;99.90
17423;DHT22;8829;47.932;7.810;2023-04-25T02:00:02;9.30;99.90
17423;DHT22;8829;47.932;7.810;2023-04-25T02:02:30;9.40;99.90
17423;DHT22;8829;47.932;7.810;2023-04-25T02:04:57;9.40;99.90
17423;DHT22;8829;47.932;7.810;2023-04-25T02:07:23;9.40;99.90
17423;DHT22;8829;47.932;7.810;2023-04-25T02:09:50;9.40;99.90
17423;DHT22;8829;47.932;7.810;2023-04-25T02:12:17;9.40;99.90
17423;DHT22;8829;47.932;7.810;2023-04-25T02:14:45;9.40;99.90
17423;DHT22;8829;47.932;7.810;2023-04-25T02:27:17;9.20;99.90
17423;DHT22;8829;47.932;7.810;2023-04-25T02:29:45;9.20;99.90
17423;DHT22;8829;47.932;7.810;2023-04-25T02:32:11;9.20;99.90
17423;DHT22;8829;47.932;7.810;2023-04-25T02:34:38;9.30;99.90
17423;DHT22;8829;47.932;7.810;2023-04-25T02:37:05;9.30;99.90
17423;DHT22;8829;47.932;7.810;2023-04-25T02:39:31;9.40;99.90
17423;DHT22;8829;47.932;7.810;2023-04-25T02:41:58;9.40;99.90
17423;DHT22;8829;47.932;7.810;2023-04-25T02:44:26;9.40;99.90
17423;DHT22;8829;47.932;7.810;2023-04-25T02:46:54;9.20;99.90
17423;DHT22;8829;47.932;7.810;2023-04-25T02:49:20;9.10;99.90
17423;DHT22;8829;47.932;7.810;2023-04-25T02:51:47;9.10;99.90
17423;DHT22;8829;47.932;7.810;2023-04-25T02:54:14;9.10;99.90
17423;DHT22;8829;47.932;7.810;2023-04-25T02:56:41;9.00;99.90
17423;DHT22;8829;47.932;7.810;2023-04-25T02:59:08;8.90;99.90
17423;DHT22;8829;47.932;7.810;2023-04-25T03:01:34;8.60;99.90
17423;DHT22;8829;47.932;7.810;2023-04-25T03:04:04;8.70;99.90
17423;DHT22;8829;47.932;7.810;2023-04-25T03:06:30;8.70;99.90
17423;DHT22;8829;47.932;7.810;2023-04-25T03:08:57;8.60;99.90
17423;DHT22;8829;47.932;7.810;2023-04-25T03:11:25;8.60;99.90
17423;DHT22;8829;47.932;7.810;2023-04-25T03:13:51;8.60;99.90
17423;DHT22;8829;47.932;7.810;2023-04-25T03:16:18;8.60;99.90
17423;DHT22;8829;47.932;7.810;2023-04-25T03:18:45;8.70;99.90
17423;DHT22;8829;47.932;7.810;2023-04-25T03:21:13;8.80;99.90
17423;DHT22;8829;47.932;7.810;2023-04-25T03:23:40;8.90;99.90
17423;DHT22;8829;47.932;7.810;2023-04-25T03:26:07;9.00;99.90
17423;DHT22;8829;47.932;7.810;2023-04-25T03:28:33;9.10;99.90
17423;DHT22;8829;47.932;7.810;2023-04-25T03:31:00;9.10;99.90
17423;DHT22;8829;47.932;7.810;2023-04-25T03:33:27;8.80;99.90
17423;DHT22;8829;47.932;7.810;2023-04-25T03:35:53;8.80;99.90
17423;DHT22;8829;47.932;7.810;2023-04-25T03:38:21;8.70;99.90
17423;DHT22;8829;47.932;7.810;2023-04-25T03:40:49;8.50;99.90
17423;DHT22;8829;47.932;7.810;2023-04-25T03:43:16;8.50;99.90
17423;DHT22;8829;47.932;7.810;2023-04-25T03:45:42;8.10;99.90
17423;DHT22;8829;47.932;7.810;2023-04-25T03:48:09;8.00;99.90
17423;DHT22;8829;47.932;7.810;2023-04-25T03:50:36;8.00;99.90
17423;DHT22;8829;47.932;7.810;2023-04-25T03:53:02;7.90;99.90
17423;DHT22;8829;47.932;7.810;2023-04-25T03:55:30;8.00;99.90
17423;DHT22;8829;47.932;7.810;2023-04-25T03:57:58;8.00;99.90
17423;DHT22;8829;47.932;7.810;2023-04-25T04:00:25;7.90;99.90
17423;DHT22;8829;47.932;7.810;2023-04-25T04:02:51;7.80;99.90
17423;DHT22;8829;47.932;7.810;2023-04-25T04:05:18;7.70;99.90
17423;DHT22;8829;47.932;7.810;2023-04-25T04:07:45;7.70;99.90
17423;DHT22;8829;47.932;7.810;2023-04-25T04:10:12;7.70;99.90
17423;DHT22;8829;47.932;7.810;2023-04-25T04:12:40;7.70;99.90
17423;DHT22;8829;47.932;7.810;2023-04-25T04:15:07;7.70;99.90
17423;DHT22;8829;47.932;7.810;2023-04-25T04:17:34;7.80;99.90
17423;DHT22;8829;47.932;7.810;2023-04-25T04:20:01;7.80;99.90
17423;DHT22;8829;47.932;7.810;2023-04-25T04:22:29;7.80;99.90
17423;DHT22;8829;47.932;7.810;2023-04-25T04:24:55;7.90;99.90
17423;DHT22;8829;47.932;7.810;2023-04-25T04:27:23;7.90;99.90
17423;DHT22;8829;47.932;7.810;2023-04-25T04:29:51;7.90;99.90
17423;DHT22;8829;47.932;7.810;2023-04-25T04:32:18;8.00;99.90
17423;DHT22;8829;47.932;7.810;2023-04-25T04:34:46;8.00;99.90
17423;DHT22;8829;47.932;7.810;2023-04-25T04:37:14;8.10;99.90
17423;DHT22;8829;47.932;7.810;2023-04-25T04:39:41;8.30;99.90
17423;DHT22;8829;47.932;7.810;2023-04-25T04:42:08;8.40;99.90
17423;DHT22;8829;47.932;7.810;2023-04-25T04:44:34;8.60;99.90
17423;DHT22;8829;47.932;7.810;2023-04-25T04:47:03;8.60;99.90
17423;DHT22;8829;47.932;7.810;2023-04-25T04:49:31;8.50;99.90
17423;DHT22;8829;47.932;7.810;2023-04-25T04:51:58;8.50;99.90
17423;DHT22;8829;47.932;7.810;2023-04-25T04:54:26;8.60;99.90
17423;DHT22;8829;47.932;7.810;2023-04-25T04:56:52;8.80;99.90
17423;DHT22;8829;47.932;7.810;2023-04-25T04:59:19;8.80;99.90
17423;DHT22;8829;47.932;7.810;2023-04-25T05:01:46;9.00;99.90
17423;DHT22;8829;47.932;7.810;2023-04-25T05:04:14;9.00;99.90
17423;DHT22;8829;47.932;7.810;2023-04-25T05:06:41;9.10;99.90
17423;DHT22;8829;47.932;7.810;2023-04-25T05:09:08;9.10;99.90
17423;DHT22;8829;47.932;7.810;2023-04-25T05:11:34;9.10;99.90
17423;DHT22;8829;47.932;7.810;2023-04-25T05:14:01;9.10;99.90
17423;DHT22;8829;47.932;7.810;2023-04-25T05:16:28;9.10;99.90
17423;DHT22;8829;47.932;7.810;2023-04-25T05:18:54;9.00;99.90
17423;DHT22;8829;47.932;7.810;2023-04-25T05:21:22;8.90;99.90
17423;DHT22;8829;47.932;7.810;2023-04-25T05:23:49;8.70;99.90
17423;DHT22;8829;47.932;7.810;2023-04-25T05:26:16;8.50;99.90
17423;DHT22;8829;47.932;7.810;2023-04-25T05:28:42;8.30;99.90
17423;DHT22;8829;47.932;7.810;2023-04-25T05:31:09;8.30;99.90
17423;DHT22;8829;47.932;7.810;2023-04-25T05:33:36;8.30;99.90
17423;DHT22;8829;47.932;7.810;2023-04-25T05:36:03;8.30;99.90
17423;DHT22;8829;47.932;7.810;2023-04-25T05:38:32;8.30;99.90
17423;DHT22;8829;47.932;7.810;2023-04-25T05:40:58;8.20;99.90
17423;DHT22;8829;47.932;7.810;2023-04-25T05:43:25;8.20;99.90
17423;DHT22;8829;47.932;7.810;2023-04-25T05:45:52;8.20;99.90
17423;DHT22;8829;47.932;7.810;2023-04-25T05:48:18;8.20;99.90
17423;DHT22;8829;47.932;7.810;2023-04-25T05:50:45;8.20;99.90
17423;DHT22;8829;47.932;7.810;2023-04-25T05:53:12;8.10;99.90
17423;DHT22;8829;47.932;7.810;2023-04-25T05:55:40;8.00;99.90
17423;DHT22;8829;47.932;7.810;2023-04-25T05:58:06;8.00;99.90
17423;DHT22;8829;47.932;7.810;2023-04-25T06:00:33;8.00;99.90
17423;DHT22;8829;47.932;7.810;2023-04-25T06:03:00;7.80;99.90
17423;DHT22;8829;47.932;7.810;2023-04-25T06:05:27;7.70;99.90
17423;DHT22;8829;47.932;7.810;2023-04-25T06:07:54;7.80;99.90
17423;DHT22;8829;47.932;7.810;2023-04-25T06:10:21;7.80;99.90
17423;DHT22;8829;47.932;7.810;2023-04-25T06:12:49;7.80;99.90
17423;DHT22;8829;47.932;7.810;2023-04-25T06:15:16;7.80;99.90
17423;DHT22;8829;47.932;7.810;2023-04-25T06:17:42;7.90;99.90
17423;DHT22;8829;47.932;7.810;2023-04-25T06:20:10;7.90;99.90
17423;DHT22;8829;47.932;7.810;2023-04-25T06:22:36;7.90;99.90
17423;DHT22;8829;47.932;7.810;2023-04-25T06:25:04;8.00;99.90
17423;DHT22;8829;47.932;7.810;2023-04-25T06:27:32;8.00;99.90
17423;DHT22;8829;47.932;7.810;2023-04-25T06:30:00;8.00;99.90
17423;DHT22;8829;47.932;7.810;2023-04-25T06:32:27;8.10;99.90
17423;DHT22;8829;47.932;7.810;2023-04-25T06:34:55;8.10;99.90
17423;DHT22;8829;47.932;7.810;2023-04-25T06:37:22;8.10;99.90
17423;DHT22;8829;47.932;7.810;2023-04-25T06:39:48;8.10;99.90
17423;DHT22;8829;47.932;7.810;2023-04-25T06:42:15;8.00;99.90
17423;DHT22;8829;47.932;7.810;2023-04-25T06:44:42;8.00;99.90
17423;DHT22;8829;47.932;7.810;2023-04-25T06:47:10;8.10;99.90
17423;DHT22;8829;47.932;7.810;2023-04-25T06:49:36;8.00;99.90
17423;DHT22;8829;47.932;7.810;2023-04-25T06:52:03;8.10;99.90
17423;DHT22;8829;47.932;7.810;2023-04-25T06:54:30;8.10;99.90
17423;DHT22;8829;47.932;7.810;2023-04-25T06:56:57;8.10;99.90
17423;DHT22;8829;47.932;7.810;2023-04-25T06:59:23;8.00;99.90
17423;DHT22;8829;47.932;7.810;2023-04-25T07:01:50;8.00;99.90
17423;DHT22;8829;47.932;7.810;2023-04-25T07:04:18;8.00;99.90
17423;DHT22;8829;47.932;7.810;2023-04-25T07:06:44;8.00;99.90
17423;DHT22;8829;47.932;7.810;2023-04-25T07:09:13;8.00;99.90
17423;DHT22;8829;47.932;7.810;2023-04-25T07:11:39;7.90;99.90
17423;DHT22;8829;47.932;7.810;2023-04-25T07:14:06;7.80;99.90
17423;DHT22;8829;47.932;7.810;2023-04-25T07:16:33;7.90;99.90
17423;DHT22;8829;47.932;7.810;2023-04-25T07:19:00;7.90;99.90
17423;DHT22;8829;47.932;7.810;2023-04-25T07:21:28;7.90;99.90
17423;DHT22;8829;47.932;7.810;2023-04-25T07:23:56;7.90;99.90
17423;DHT22;8829;47.932;7.810;2023-04-25T07:26:23;7.90;99.90
17423;DHT22;8829;47.932;7.810;2023-04-25T07:28:50;7.90;99.90
17423;DHT22;8829;47.932;7.810;2023-04-25T07:31:17;8.00;99.90
17423;DHT22;8829;47.932;7.810;2023-04-25T07:33:43;8.10;99.90
17423;DHT22;8829;47.932;7.810;2023-04-25T07:36:11;8.20;99.90
17423;DHT22;8829;47.932;7.810;2023-04-25T07:38:39;8.20;99.90
17423;DHT22;8829;47.932;7.810;2023-04-25T07:41:05;8.20;99.90
17423;DHT22;8829;47.932;7.810;2023-04-25T07:43:32;8.10;99.90
17423;DHT22;8829;47.932;7.810;2023-04-25T07:45:59;8.10;99.90
17423;DHT22;8829;47.932;7.810;2023-04-25T07:48:26;8.10;99.90
17423;DHT22;8829;47.932;7.810;2023-04-25T07:50:52;8.10;99.90
17423;DHT22;8829;47.932;7.810;2023-04-25T07:53:19;8.00;99.90
17423;DHT22;8829;47.932;7.810;2023-04-25T07:55:47;8.00;99.90
17423;DHT22;8829;47.932;7.810;2023-04-25T07:58:14;7.90;99.90
17423;DHT22;8829;47.932;7.810;2023-04-25T08:00:40;7.90;99.90
17423;DHT22;8829;47.932;7.810;2023-04-25T08:03:09;8.10;99.90
17423;DHT22;8829;47.932;7.810;2023-04-25T08:05:35;8.10;99.90
17423;DHT22;8829;47.932;7.810;2023-04-25T08:08:02;8.20;99.90
17423;DHT22;8829;47.932;7.810;2023-04-25T08:10:32;8.20;99.90
17423;DHT22;8829;47.932;7.810;2023-04-25T08:13:00;8.20;99.90
17423;DHT22;8829;47.932;7.810;2023-04-25T08:15:26;8.30;99.90
17423;DHT22;8829;47.932;7.810;2023-04-25T08:17:53;8.30;99.90
17423;DHT22;8829;47.932;7.810;2023-04-25T08:20:20;8.30;99.90
17423;DHT22;8829;47.932;7.810;2023-04-25T08:22:46;8.30;99.90
17423;DHT22;8829;47.932;7.810;2023-04-25T08:25:14;8.40;99.90
17423;DHT22;8829;47.932;7.810;2023-04-25T08:27:41;8.50;99.90
17423;DHT22;8829;47.932;7.810;2023-04-25T08:30:09;8.50;99.90
17423;DHT22;8829;47.932;7.810;2023-04-25T08:32:36;8.50;99.90
17423;DHT22;8829;47.932;7.810;2023-04-25T08:35:04;8.30;99.90
17423;DHT22;8829;47.932;7.810;2023-04-25T08:37:32;8.40;99.90
17423;DHT22;8829;47.932;7.810;2023-04-25T08:39:58;8.50;99.90
17423;DHT22;8829;47.932;7.810;2023-04-25T08:42:27;8.50;99.90
17423;DHT22;8829;47.932;7.810;2023-04-25T08:44:54;8.60;99.90
17423;DHT22;8829;47.932;7.810;2023-04-25T08:47:23;8.60;99.90
17423;DHT22;8829;47.932;7.810;2023-04-25T08:49:53;8.60;99.90
17423;DHT22;8829;47.932;7.810;2023-04-25T08:52:22;8.60;99.90
17423;DHT22;8829;47.932;7.810;2023-04-25T08:54:49;8.70;99.90
17423;DHT22;8829;47.932;7.810;2023-04-25T08:57:18;8.80;99.90
17423;DHT22;8829;47.932;7.810;2023-04-25T08:59:46;8.80;99.90
17423;DHT22;8829;47.932;7.810;2023-04-25T09:02:13;8.90;99.90
17423;DHT22;8829;47.932;7.810;2023-04-25T09:04:44;8.90;99.90
17423;DHT22;8829;47.932;7.810;2023-04-25T09:07:11;9.10;99.90
17423;DHT22;8829;47.932;7.810;2023-04-25T09:09:38;9.20;99.90
17423;DHT22;8829;47.932;7.810;2023-04-25T09:12:05;9.30;99.90
17423;DHT22;8829;47.932;7.810;2023-04-25T09:14:32;9.30;99.90
17423;DHT22;8829;47.932;7.810;2023-04-25T09:17:00;9.60;99.90
17423;DHT22;8829;47.932;7.810;2023-04-25T09:19:29;9.60;99.90
17423;DHT22;8829;47.932;7.810;2023-04-25T09:21:58;9.70;99.90
17423;DHT22;8829;47.932;7.810;2023-04-25T09:24:36;10.00;99.90
17423;DHT22;8829;47.932;7.810;2023-04-25T09:27:04;10.30;99.90
17423;DHT22;8829;47.932;7.810;2023-04-25T09:29:32;10.20;99.90
17423;DHT22;8829;47.932;7.810;2023-04-25T09:32:15;10.20;99.90
17423;DHT22;8829;47.932;7.810;2023-04-25T09:34:43;10.30;99.90
17423;DHT22;8829;47.932;7.810;2023-04-25T09:37:11;10.20;99.90
17423;DHT22;8829;47.932;7.810;2023-04-25T09:39:38;10.20;99.90
17423;DHT22;8829;47.932;7.810;2023-04-25T09:42:05;10.10;99.90
17423;DHT22;8829;47.932;7.810;2023-04-25T09:44:32;10.10;99.90
17423;DHT22;8829;47.932;7.810;2023-04-25T09:46:58;10.10;99.90
17423;DHT22;8829;47.932;7.810;2023-04-25T09:49:26;10.30;99.90
17423;DHT22;8829;47.932;7.810;2023-04-25T09:51:56;10.70;99.90
17423;DHT22;8829;47.932;7.810;2023-04-25T09:54:25;11.00;99.90
17423;DHT22;8829;47.932;7.810;2023-04-25T09:56:53;11.20;99.90
17423;DHT22;8829;47.932;7.810;2023-04-25T09:59:20;11.40;99.90
17423;DHT22;8829;47.932;7.810;2023-04-25T10:01:48;11.30;99.90
17423;DHT22;8829;47.932;7.810;2023-04-25T10:04:19;10.40;99.90
17423;DHT22;8829;47.932;7.810;2023-04-25T10:06:48;10.60;99.90
17423;DHT22;8829;47.932;7.810;2023-04-25T10:09:19;10.80;99.90
17423;DHT22;8829;47.932;7.810;2023-04-25T10:11:47;10.90;99.90
17423;DHT22;8829;47.932;7.810;2023-04-25T10:14:14;10.90;99.90
17423;DHT22;8829;47.932;7.810;2023-04-25T10:16:42;10.80;99.90
17423;DHT22;8829;47.932;7.810;2023-04-25T10:19:09;11.10;99.90
17423;DHT22;8829;47.932;7.810;2023-04-25T10:21:44;11.30;99.90
17423;DHT22;8829;47.932;7.810;2023-04-25T10:24:13;11.30;99.90
17423;DHT22;8829;47.932;7.810;2023-04-25T10:26:40;11.60;99.90
17423;DHT22;8829;47.932;7.810;2023-04-25T10:29:09;11.10;99.90
17423;DHT22;8829;47.932;7.810;2023-04-25T10:31:45;10.90;99.90
17423;DHT22;8829;47.932;7.810;2023-04-25T10:34:11;11.10;99.90
17423;DHT22;8829;47.932;7.810;2023-04-25T10:36:38;10.70;99.90
17423;DHT22;8829;47.932;7.810;2023-04-25T10:39:06;11.00;99.90
17423;DHT22;8829;47.932;7.810;2023-04-25T10:41:45;11.50;99.90
17423;DHT22;8829;47.932;7.810;2023-04-25T10:44:14;12.00;99.90
17423;DHT22;8829;47.932;7.810;2023-04-25T10:46:41;12.30;99.90
17423;DHT22;8829;47.932;7.810;2023-04-25T10:49:10;11.70;99.90
17423;DHT22;8829;47.932;7.810;2023-04-25T10:51:37;11.40;99.90
17423;DHT22;8829;47.932;7.810;2023-04-25T10:54:05;11.30;99.90
17423;DHT22;8829;47.932;7.810;2023-04-25T10:56:32;11.00;99.90
17423;DHT22;8829;47.932;7.810;2023-04-25T10:59:08;11.00;99.90
17423;DHT22;8829;47.932;7.810;2023-04-25T11:01:39;11.20;99.90
17423;DHT22;8829;47.932;7.810;2023-04-25T11:04:06;11.30;99.90
17423;DHT22;8829;47.932;7.810;2023-04-25T11:06:55;11.40;99.90
17423;DHT22;8829;47.932;7.810;2023-04-25T11:09:25;11.60;99.90
17423;DHT22;8829;47.932;7.810;2023-04-25T11:11:53;12.00;99.90
17423;DHT22;8829;47.932;7.810;2023-04-25T11:14:20;12.30;99.90
17423;DHT22;8829;47.932;7.810;2023-04-25T11:16:52;12.10;99.90
17423;DHT22;8829;47.932;7.810;2023-04-25T11:19:19;12.10;99.90
17423;DHT22;8829;47.932;7.810;2023-04-25T11:21:46;11.50;99.90
17423;DHT22;8829;47.932;7.810;2023-04-25T11:24:13;11.30;99.90
17423;DHT22;8829;47.932;7.810;2023-04-25T11:26:41;11.50;99.90
17423;DHT22;8829;47.932;7.810;2023-04-25T11:29:08;11.70;99.90
17423;DHT22;8829;47.932;7.810;2023-04-25T11:31:35;11.80;99.90
17423;DHT22;8829;47.932;7.810;2023-04-25T11:34:03;11.60;99.90
17423;DHT22;8829;47.932;7.810;2023-04-25T11:36:29;11.50;99.90
17423;DHT22;8829;47.932;7.810;2023-04-25T11:38:57;11.10;99.90
17423;DHT22;8829;47.932;7.810;2023-04-25T11:41:23;10.90;99.90
17423;DHT22;8829;47.932;7.810;2023-04-25T11:43:52;10.90;99.90
17423;DHT22;8829;47.932;7.810;2023-04-25T11:46:19;10.60;99.90
17423;DHT22;8829;47.932;7.810;2023-04-25T11:48:46;10.40;99.90
17423;DHT22;8829;47.932;7.810;2023-04-25T11:51:14;10.30;99.90
17423;DHT22;8829;47.932;7.810;2023-04-25T11:53:41;10.50;99.90
17423;DHT22;8829;47.932;7.810;2023-04-25T11:56:10;9.20;99.90
17423;DHT22;8829;47.932;7.810;2023-04-25T11:58:55;9.10;99.90
17423;DHT22;8829;47.932;7.810;2023-04-25T12:01:27;9.40;99.90
17423;DHT22;8829;47.932;7.810;2023-04-25T12:03:54;9.30;99.90
17423;DHT22;8829;47.932;7.810;2023-04-25T12:06:26;9.70;99.90
17423;DHT22;8829;47.932;7.810;2023-04-25T12:09:02;9.90;99.90
17423;DHT22;8829;47.932;7.810;2023-04-25T12:11:30;10.40;99.90
17423;DHT22;8829;47.932;7.810;2023-04-25T12:14:02;10.90;99.90
17423;DHT22;8829;47.932;7.810;2023-04-25T12:16:30;10.80;99.90
17423;DHT22;8829;47.932;7.810;2023-04-25T12:18:57;10.60;99.90
17423;DHT22;8829;47.932;7.810;2023-04-25T12:21:29;10.40;99.90
17423;DHT22;8829;47.932;7.810;2023-04-25T12:24:11;10.60;99.90
17423;DHT22;8829;47.932;7.810;2023-04-25T12:26:48;10.80;99.90
17423;DHT22;8829;47.932;7.810;2023-04-25T12:29:17;11.00;99.90
17423;DHT22;8829;47.932;7.810;2023-04-25T12:31:44;11.10;99.90
17423;DHT22;8829;47.932;7.810;2023-04-25T12:34:11;11.30;99.90
17423;DHT22;8829;47.932;7.810;2023-04-25T12:36:39;11.60;99.90
17423;DHT22;8829;47.932;7.810;2023-04-25T12:39:06;11.90;99.90
17423;DHT22;8829;47.932;7.810;2023-04-25T12:41:34;12.00;99.90
17423;DHT22;8829;47.932;7.810;2023-04-25T12:44:00;12.00;99.90
17423;DHT22;8829;47.932;7.810;2023-04-25T12:46:27;11.90;99.90
17423;DHT22;8829;47.932;7.810;2023-04-25T12:48:54;12.20;99.90
17423;DHT22;8829;47.932;7.810;2023-04-25T12:51:22;12.40;99.90
17423;DHT22;8829;47.932;7.810;2023-04-25T12:53:51;12.30;99.90
17423;DHT22;8829;47.932;7.810;2023-04-25T12:56:18;12.40;99.90
17423;DHT22;8829;47.932;7.810;2023-04-25T12:58:45;12.60;99.90
17423;DHT22;8829;47.932;7.810;2023-04-25T13:01:13;12.80;99.90
17423;DHT22;8829;47.932;7.810;2023-04-25T13:03:40;12.60;99.90
17423;DHT22;8829;47.932;7.810;2023-04-25T13:06:07;12.50;99.90
17423;DHT22;8829;47.932;7.810;2023-04-25T13:08:34;12.30;99.90
17423;DHT22;8829;47.932;7.810;2023-04-25T13:11:03;12.30;99.90
17423;DHT22;8829;47.932;7.810;2023-04-25T13:13:30;12.40;99.90
17423;DHT22;8829;47.932;7.810;2023-04-25T13:15:57;12.50;99.90
17423;DHT22;8829;47.932;7.810;2023-04-25T13:18:24;12.60;99.90
17423;DHT22;8829;47.932;7.810;2023-04-25T13:20:51;12.60;99.90
17423;DHT22;8829;47.932;7.810;2023-04-25T13:23:18;12.60;99.90
17423;DHT22;8829;47.932;7.810;2023-04-25T13:25:45;12.60;99.90
17423;DHT22;8829;47.932;7.810;2023-04-25T13:28:13;12.60;99.90
17423;DHT22;8829;47.932;7.810;2023-04-25T13:30:40;12.70;99.90
17423;DHT22;8829;47.932;7.810;2023-04-25T13:33:07;12.90;99.90
17423;DHT22;8829;47.932;7.810;2023-04-25T13:35:35;12.90;99.90
17423;DHT22;8829;47.932;7.810;2023-04-25T13:38:02;13.00;99.90
17423;DHT22;8829;47.932;7.810;2023-04-25T13:40:29;13.30;99.90
17423;DHT22;8829;47.932;7.810;2023-04-25T13:42:56;13.50;99.90
17423;DHT22;8829;47.932;7.810;2023-04-25T13:45:23;13.60;99.90
17423;DHT22;8829;47.932;7.810;2023-04-25T13:47:50;13.30;99.90
17423;DHT22;8829;47.932;7.810;2023-04-25T13:50:17;13.40;99.90
17423;DHT22;8829;47.932;7.810;2023-04-25T13:52:44;13.60;99.90
17423;DHT22;8829;47.932;7.810;2023-04-25T13:55:10;13.80;99.90
17423;DHT22;8829;47.932;7.810;2023-04-25T13:57:37;13.40;99.90
17423;DHT22;8829;47.932;7.810;2023-04-25T14:00:05;12.20;99.90
17423;DHT22;8829;47.932;7.810;2023-04-25T14:02:35;11.00;99.90
17423;DHT22;8829;47.932;7.810;2023-04-25T14:05:02;10.40;99.90
17423;DHT22;8829;47.932;7.810;2023-04-25T14:07:29;10.00;99.90
17423;DHT22;8829;47.932;7.810;2023-04-25T14:09:56;9.90;99.90
17423;DHT22;8829;47.932;7.810;2023-04-25T14:12:23;9.70;99.90
17423;DHT22;8829;47.932;7.810;2023-04-25T14:14:50;9.70;99.90
17423;DHT22;8829;47.932;7.810;2023-04-25T14:17:18;9.90;99.90
17423;DHT22;8829;47.932;7.810;2023-04-25T14:19:46;10.00;99.90
17423;DHT22;8829;47.932;7.810;2023-04-25T14:22:14;10.20;99.90
17423;DHT22;8829;47.932;7.810;2023-04-25T14:24:40;10.00;99.90
17423;DHT22;8829;47.932;7.810;2023-04-25T14:27:07;10.00;99.90
17423;DHT22;8829;47.932;7.810;2023-04-25T14:29:34;10.00;99.90
17423;DHT22;8829;47.932;7.810;2023-04-25T14:32:00;10.10;99.90
17423;DHT22;8829;47.932;7.810;2023-04-25T14:34:28;10.00;99.90
17423;DHT22;8829;47.932;7.810;2023-04-25T14:36:56;9.80;99.90
17423;DHT22;8829;47.932;7.810;2023-04-25T14:39:23;9.80;99.90
17423;DHT22;8829;47.932;7.810;2023-04-25T14:41:50;9.60;99.90
17423;DHT22;8829;47.932;7.810;2023-04-25T14:44:17;9.60;99.90
17423;DHT22;8829;47.932;7.810;2023-04-25T14:46:43;9.60;99.90
17423;DHT22;8829;47.932;7.810;2023-04-25T14:49:10;9.70;99.90
17423;DHT22;8829;47.932;7.810;2023-04-25T14:51:37;10.00;99.90
17423;DHT22;8829;47.932;7.810;2023-04-25T14:54:05;10.00;99.90
17423;DHT22;8829;47.932;7.810;2023-04-25T14:56:32;10.20;99.90
17423;DHT22;8829;47.932;7.810;2023-04-25T14:58:58;10.30;99.90
17423;DHT22;8829;47.932;7.810;2023-04-25T15:01:25;10.50;99.90
17423;DHT22;8829;47.932;7.810;2023-04-25T15:03:52;10.50;99.90
17423;DHT22;8829;47.932;7.810;2023-04-25T15:06:19;10.50;99.90
17423;DHT22;8829;47.932;7.810;2023-04-25T15:08:45;10.60;99.90
17423;DHT22;8829;47.932;7.810;2023-04-25T15:11:13;10.70;99.90
17423;DHT22;8829;47.932;7.810;2023-04-25T15:13:40;10.70;99.90
17423;DHT22;8829;47.932;7.810;2023-04-25T15:16:07;10.50;99.90
17423;DHT22;8829;47.932;7.810;2023-04-25T15:18:33;10.60;99.90
17423;DHT22;8829;47.932;7.810;2023-04-25T15:21:00;10.60;99.90
17423;DHT22;8829;47.932;7.810;2023-04-25T15:23:27;9.60;99.90
17423;DHT22;8829;47.932;7.810;2023-04-25T15:25:53;8.70;99.90
17423;DHT22;8829;47.932;7.810;2023-04-25T15:28:21;8.40;99.90
17423;DHT22;8829;47.932;7.810;2023-04-25T15:30:48;8.60;99.90
17423;DHT22;8829;47.932;7.810;2023-04-25T15:33:15;8.50;99.90
17423;DHT22;8829;47.932;7.810;2023-04-25T15:35:44;7.80;99.90
17423;DHT22;8829;47.932;7.810;2023-04-25T15:38:10;7.80;99.90
17423;DHT22;8829;47.932;7.810;2023-04-25T15:40:37;8.00;99.90
17423;DHT22;8829;47.932;7.810;2023-04-25T15:43:04;8.00;99.90
17423;DHT22;8829;47.932;7.810;2023-04-25T15:45:33;8.00;99.90
17423;DHT22;8829;47.932;7.810;2023-04-25T15:48:02;8.00;99.90
17423;DHT22;8829;47.932;7.810;2023-04-25T15:50:28;8.10;99.90
17423;DHT22;8829;47.932;7.810;2023-04-25T15:52:55;8.20;99.90
17423;DHT22;8829;47.932;7.810;2023-04-25T15:55:22;8.50;99.90
17423;DHT22;8829;47.932;7.810;2023-04-25T15:57:51;8.60;99.90
17423;DHT22;8829;47.932;7.810;2023-04-25T16:00:18;8.90;99.90
17423;DHT22;8829;47.932;7.810;2023-04-25T16:02:47;9.00;99.90
17423;DHT22;8829;47.932;7.810;2023-04-25T16:05:15;8.90;99.90
17423;DHT22;8829;47.932;7.810;2023-04-25T16:07:43;8.80;99.90
17423;DHT22;8829;47.932;7.810;2023-04-25T16:10:11;8.80;99.90